sensor_id;sensor_type;location;lat;lon;timestamp;P1;durP1;ratioP1;P2;durP2;ratioP2
23531;SDS011;11943;52.270;20.978;2023-07-13T00:02:21;13.23;;;9.20;;
23531;SDS011;11943;52.270;20.978;2023-07-13T00:04:46;11.90;;;9.43;;
23531;SDS011;11943;52.270;20.978;2023-07-13T00:07:12;19.02;;;10.63;;
23531;SDS011;11943;52.270;20.978;2023-07-13T00:09:39;12.52;;;9.48;;
23531;SDS011;11943;52.270;20.978;2023-07-13T00:12:19;14.30;;;10.02;;
23531;SDS011;11943;52.270;20.978;2023-07-13T00:14:55;11.27;;;9.90;;
23531;SDS011;11943;52.270;20.978;2023-07-13T00:17:22;12.00;;;9.75;;
23531;SDS011;11943;52.270;20.978;2023-07-13T00:19:48;10.77;;;9.65;;
23531;SDS011;11943;52.270;20.978;2023-07-13T00:22:14;14.98;;;9.80;;
23531;SDS011;11943;52.270;20.978;2023-07-13T00:24:40;16.73;;;9.80;;
23531;SDS011;11943;52.270;20.978;2023-07-13T00:27:07;12.15;;;10.65;;
23531;SDS011;11943;52.270;20.978;2023-07-13T00:29:34;14.00;;;10.50;;
23531;SDS011;11943;52.270;20.978;2023-07-13T00:32:01;17.63;;;10.50;;
23531;SDS011;11943;52.270;20.978;2023-07-13T00:34:31;12.57;;;10.20;;
23531;SDS011;11943;52.270;20.978;2023-07-13T00:36:56;17.13;;;10.27;;
23531;SDS011;11943;52.270;20.978;2023-07-13T00:39:22;14.07;;;11.02;;
23531;SDS011;11943;52.270;20.978;2023-07-13T00:41:49;15.80;;;10.82;;
23531;SDS011;11943;52.270;20.978;2023-07-13T00:44:15;19.98;;;11.02;;
23531;SDS011;11943;52.270;20.978;2023-07-13T00:46:43;11.55;;;10.23;;
23531;SDS011;11943;52.270;20.978;2023-07-13T00:49:10;13.80;;;10.65;;
23531;SDS011;11943;52.270;20.978;2023-07-13T00:51:55;16.58;;;10.45;;
23531;SDS011;11943;52.270;20.978;2023-07-13T00:54:27;16.45;;;10.20;;
23531;SDS011;11943;52.270;20.978;2023-07-13T00:56:58;17.40;;;10.88;;
23531;SDS011;11943;52.270;20.978;2023-07-13T00:59:26;15.13;;;10.88;;
23531;SDS011;11943;52.270;20.978;2023-07-13T01:01:52;16.38;;;10.57;;
23531;SDS011;11943;52.270;20.978;2023-07-13T01:04:18;12.82;;;9.57;;
23531;SDS011;11943;52.270;20.978;2023-07-13T01:06:44;14.25;;;10.13;;
23531;SDS011;11943;52.270;20.978;2023-07-13T01:09:12;13.02;;;9.73;;
23531;SDS011;11943;52.270;20.978;2023-07-13T01:11:41;11.50;;;9.70;;
23531;SDS011;11943;52.270;20.978;2023-07-13T01:14:07;13.52;;;9.63;;
23531;SDS011;11943;52.270;20.978;2023-07-13T01:16:34;13.50;;;10.15;;
23531;SDS011;11943;52.270;20.978;2023-07-13T01:21:29;12.90;;;9.65;;
23531;SDS011;11943;52.270;20.978;2023-07-13T01:23:57;11.77;;;10.20;;
23531;SDS011;11943;52.270;20.978;2023-07-13T01:26:23;13.60;;;10.02;;
23531;SDS011;11943;52.270;20.978;2023-07-13T01:28:48;14.55;;;10.40;;
23531;SDS011;11943;52.270;20.978;2023-07-13T01:31:14;15.43;;;10.30;;
23531;SDS011;11943;52.270;20.978;2023-07-13T01:33:40;13.20;;;10.32;;
23531;SDS011;11943;52.270;20.978;2023-07-13T01:36:07;15.98;;;11.30;;
23531;SDS011;11943;52.270;20.978;2023-07-13T01:38:34;16.17;;;12.38;;
23531;SDS011;11943;52.270;20.978;2023-07-13T01:41:01;13.98;;;11.27;;
23531;SDS011;11943;52.270;20.978;2023-07-13T01:43:27;18.90;;;11.60;;
23531;SDS011;11943;52.270;20.978;2023-07-13T01:45:53;13.75;;;11.45;;
23531;SDS011;11943;52.270;20.978;2023-07-13T01:48:19;18.52;;;12.38;;
23531;SDS011;11943;52.270;20.978;2023-07-13T01:50:45;20.45;;;12.00;;
23531;SDS011;11943;52.270;20.978;2023-07-13T01:53:12;16.83;;;12.57;;
23531;SDS011;11943;52.270;20.978;2023-07-13T01:55:38;16.27;;;12.55;;
23531;SDS011;11943;52.270;20.978;2023-07-13T01:58:04;17.55;;;11.88;;
23531;SDS011;11943;52.270;20.978;2023-07-13T02:00:30;18.48;;;12.00;;
23531;SDS011;11943;52.270;20.978;2023-07-13T02:02:56;14.00;;;10.85;;
23531;SDS011;11943;52.270;20.978;2023-07-13T02:05:22;12.98;;;11.50;;
23531;SDS011;11943;52.270;20.978;2023-07-13T02:07:48;13.82;;;11.23;;
23531;SDS011;11943;52.270;20.978;2023-07-13T02:10:14;17.70;;;12.02;;
23531;SDS011;11943;52.270;20.978;2023-07-13T02:12:40;17.48;;;11.75;;
23531;SDS011;11943;52.270;20.978;2023-07-13T02:15:07;26.07;;;12.40;;
23531;SDS011;11943;52.270;20.978;2023-07-13T02:17:34;16.23;;;12.45;;
23531;SDS011;11943;52.270;20.978;2023-07-13T02:20:00;17.20;;;11.85;;
23531;SDS011;11943;52.270;20.978;2023-07-13T02:22:27;16.20;;;12.55;;
23531;SDS011;11943;52.270;20.978;2023-07-13T02:24:53;17.40;;;12.40;;
23531;SDS011;11943;52.270;20.978;2023-07-13T02:27:18;16.45;;;12.90;;
23531;SDS011;11943;52.270;20.978;2023-07-13T02:29:44;17.20;;;13.30;;
23531;SDS011;11943;52.270;20.978;2023-07-13T02:32:10;16.00;;;12.73;;
23531;SDS011;11943;52.270;20.978;2023-07-13T02:34:36;16.17;;;12.88;;
23531;SDS011;11943;52.270;20.978;2023-07-13T02:37:01;17.20;;;13.68;;
23531;SDS011;11943;52.270;20.978;2023-07-13T02:39:27;18.05;;;13.93;;
23531;SDS011;11943;52.270;20.978;2023-07-13T02:41:53;17.92;;;13.80;;
23531;SDS011;11943;52.270;20.978;2023-07-13T02:44:18;18.45;;;13.98;;
23531;SDS011;11943;52.270;20.978;2023-07-13T02:46:44;19.52;;;13.30;;
23531;SDS011;11943;52.270;20.978;2023-07-13T02:49:10;15.63;;;13.27;;
23531;SDS011;11943;52.270;20.978;2023-07-13T02:51:35;18.77;;;13.52;;
23531;SDS011;11943;52.270;20.978;2023-07-13T02:54:03;15.90;;;13.20;;
23531;SDS011;11943;52.270;20.978;2023-07-13T02:56:30;15.30;;;12.77;;
23531;SDS011;11943;52.270;20.978;2023-07-13T02:58:56;15.73;;;12.57;;
23531;SDS011;11943;52.270;20.978;2023-07-13T03:01:23;18.67;;;12.63;;
23531;SDS011;11943;52.270;20.978;2023-07-13T03:03:49;18.42;;;12.43;;
23531;SDS011;11943;52.270;20.978;2023-07-13T03:06:16;19.07;;;13.47;;
23531;SDS011;11943;52.270;20.978;2023-07-13T03:08:42;16.17;;;12.95;;
23531;SDS011;11943;52.270;20.978;2023-07-13T03:11:10;15.90;;;13.35;;
23531;SDS011;11943;52.270;20.978;2023-07-13T03:13:39;16.40;;;13.10;;
23531;SDS011;11943;52.270;20.978;2023-07-13T03:16:05;16.02;;;11.90;;
23531;SDS011;11943;52.270;20.978;2023-07-13T03:18:31;15.35;;;12.80;;
23531;SDS011;11943;52.270;20.978;2023-07-13T03:20:56;15.90;;;12.50;;
23531;SDS011;11943;52.270;20.978;2023-07-13T03:23:22;17.10;;;13.15;;
23531;SDS011;11943;52.270;20.978;2023-07-13T03:25:49;21.40;;;13.68;;
23531;SDS011;11943;52.270;20.978;2023-07-13T03:28:15;18.15;;;12.85;;
23531;SDS011;11943;52.270;20.978;2023-07-13T03:30:41;17.90;;;13.38;;
23531;SDS011;11943;52.270;20.978;2023-07-13T03:33:07;15.60;;;13.00;;
23531;SDS011;11943;52.270;20.978;2023-07-13T03:35:34;19.10;;;14.25;;
23531;SDS011;11943;52.270;20.978;2023-07-13T03:38:00;18.13;;;14.90;;
23531;SDS011;11943;52.270;20.978;2023-07-13T03:40:27;18.50;;;13.82;;
23531;SDS011;11943;52.270;20.978;2023-07-13T03:42:53;18.42;;;13.40;;
23531;SDS011;11943;52.270;20.978;2023-07-13T03:45:19;17.40;;;13.73;;
23531;SDS011;11943;52.270;20.978;2023-07-13T03:47:45;19.13;;;13.85;;
23531;SDS011;11943;52.270;20.978;2023-07-13T03:50:11;19.65;;;13.45;;
23531;SDS011;11943;52.270;20.978;2023-07-13T03:52:36;24.50;;;14.23;;
23531;SDS011;11943;52.270;20.978;2023-07-13T03:55:02;20.48;;;13.18;;
23531;SDS011;11943;52.270;20.978;2023-07-13T03:57:28;17.45;;;12.95;;
23531;SDS011;11943;52.270;20.978;2023-07-13T03:59:53;24.60;;;15.10;;
23531;SDS011;11943;52.270;20.978;2023-07-13T04:02:19;23.02;;;14.73;;
23531;SDS011;11943;52.270;20.978;2023-07-13T04:04:45;20.50;;;14.25;;
23531;SDS011;11943;52.270;20.978;2023-07-13T04:07:11;21.10;;;15.23;;
23531;SDS011;11943;52.270;20.978;2023-07-13T04:09:37;22.42;;;14.57;;
23531;SDS011;11943;52.270;20.978;2023-07-13T04:12:03;21.88;;;14.02;;
23531;SDS011;11943;52.270;20.978;2023-07-13T04:14:29;18.58;;;14.68;;
23531;SDS011;11943;52.270;20.978;2023-07-13T04:16:54;18.85;;;13.65;;
23531;SDS011;11943;52.270;20.978;2023-07-13T04:19:20;20.48;;;14.55;;
23531;SDS011;11943;52.270;20.978;2023-07-13T04:21:46;17.45;;;13.23;;
23531;SDS011;11943;52.270;20.978;2023-07-13T04:24:11;19.63;;;13.80;;
23531;SDS011;11943;52.270;20.978;2023-07-13T04:26:37;17.45;;;14.30;;
23531;SDS011;11943;52.270;20.978;2023-07-13T04:29:03;22.23;;;13.85;;
23531;SDS011;11943;52.270;20.978;2023-07-13T04:31:30;20.30;;;13.10;;
23531;SDS011;11943;52.270;20.978;2023-07-13T04:33:56;21.75;;;12.85;;
23531;SDS011;11943;52.270;20.978;2023-07-13T04:36:22;19.77;;;13.23;;
23531;SDS011;11943;52.270;20.978;2023-07-13T04:38:52;15.48;;;12.73;;
23531;SDS011;11943;52.270;20.978;2023-07-13T04:41:18;16.95;;;13.80;;
23531;SDS011;11943;52.270;20.978;2023-07-13T04:43:45;19.73;;;13.10;;
23531;SDS011;11943;52.270;20.978;2023-07-13T04:46:12;17.77;;;13.05;;
23531;SDS011;11943;52.270;20.978;2023-07-13T04:48:39;17.33;;;12.20;;
23531;SDS011;11943;52.270;20.978;2023-07-13T04:51:05;17.70;;;12.93;;
23531;SDS011;11943;52.270;20.978;2023-07-13T04:53:32;20.00;;;13.10;;
23531;SDS011;11943;52.270;20.978;2023-07-13T04:55:59;17.83;;;13.32;;
23531;SDS011;11943;52.270;20.978;2023-07-13T04:58:25;17.33;;;12.68;;
23531;SDS011;11943;52.270;20.978;2023-07-13T05:00:51;23.23;;;13.63;;
23531;SDS011;11943;52.270;20.978;2023-07-13T05:03:17;18.70;;;13.73;;
23531;SDS011;11943;52.270;20.978;2023-07-13T05:05:43;16.50;;;13.73;;
23531;SDS011;11943;52.270;20.978;2023-07-13T05:08:19;22.00;;;13.95;;
23531;SDS011;11943;52.270;20.978;2023-07-13T05:10:44;20.35;;;14.75;;
23531;SDS011;11943;52.270;20.978;2023-07-13T05:13:10;20.65;;;13.82;;
23531;SDS011;11943;52.270;20.978;2023-07-13T05:15:36;16.88;;;13.57;;
23531;SDS011;11943;52.270;20.978;2023-07-13T05:18:02;21.58;;;14.05;;
23531;SDS011;11943;52.270;20.978;2023-07-13T05:20:27;18.33;;;14.23;;
23531;SDS011;11943;52.270;20.978;2023-07-13T05:22:53;21.85;;;14.35;;
23531;SDS011;11943;52.270;20.978;2023-07-13T05:25:18;22.42;;;14.50;;
23531;SDS011;11943;52.270;20.978;2023-07-13T05:27:44;21.65;;;14.77;;
23531;SDS011;11943;52.270;20.978;2023-07-13T05:30:10;25.88;;;14.93;;
23531;SDS011;11943;52.270;20.978;2023-07-13T05:32:36;21.02;;;14.45;;
23531;SDS011;11943;52.270;20.978;2023-07-13T05:35:02;41.30;;;15.40;;
23531;SDS011;11943;52.270;20.978;2023-07-13T05:37:28;28.60;;;15.70;;
23531;SDS011;11943;52.270;20.978;2023-07-13T05:39:54;30.65;;;13.57;;
23531;SDS011;11943;52.270;20.978;2023-07-13T05:42:19;23.73;;;14.02;;
23531;SDS011;11943;52.270;20.978;2023-07-13T05:44:45;25.50;;;14.35;;
23531;SDS011;11943;52.270;20.978;2023-07-13T05:47:10;20.25;;;14.35;;
23531;SDS011;11943;52.270;20.978;2023-07-13T05:49:36;23.20;;;14.00;;
23531;SDS011;11943;52.270;20.978;2023-07-13T05:52:02;23.13;;;13.95;;
23531;SDS011;11943;52.270;20.978;2023-07-13T05:54:28;19.77;;;12.98;;
23531;SDS011;11943;52.270;20.978;2023-07-13T05:56:54;17.05;;;12.18;;
23531;SDS011;11943;52.270;20.978;2023-07-13T05:59:20;18.25;;;12.23;;
23531;SDS011;11943;52.270;20.978;2023-07-13T06:01:46;19.45;;;12.88;;
23531;SDS011;11943;52.270;20.978;2023-07-13T06:04:11;26.10;;;12.95;;
23531;SDS011;11943;52.270;20.978;2023-07-13T06:06:37;17.80;;;12.43;;
23531;SDS011;11943;52.270;20.978;2023-07-13T06:09:02;25.02;;;12.90;;
23531;SDS011;11943;52.270;20.978;2023-07-13T06:11:28;15.40;;;11.45;;
23531;SDS011;11943;52.270;20.978;2023-07-13T06:13:55;23.15;;;12.63;;
23531;SDS011;11943;52.270;20.978;2023-07-13T06:16:21;18.70;;;12.90;;
23531;SDS011;11943;52.270;20.978;2023-07-13T06:18:47;21.80;;;12.25;;
23531;SDS011;11943;52.270;20.978;2023-07-13T06:21:14;20.27;;;12.40;;
23531;SDS011;11943;52.270;20.978;2023-07-13T06:23:42;16.75;;;12.73;;
23531;SDS011;11943;52.270;20.978;2023-07-13T06:26:08;20.90;;;12.25;;
23531;SDS011;11943;52.270;20.978;2023-07-13T06:28:35;20.10;;;11.73;;
23531;SDS011;11943;52.270;20.978;2023-07-13T06:31:01;17.63;;;12.35;;
23531;SDS011;11943;52.270;20.978;2023-07-13T06:33:29;16.92;;;12.07;;
23531;SDS011;11943;52.270;20.978;2023-07-13T06:35:55;19.55;;;11.73;;
23531;SDS011;11943;52.270;20.978;2023-07-13T06:38:21;17.27;;;12.85;;
23531;SDS011;11943;52.270;20.978;2023-07-13T06:40:47;21.98;;;11.50;;
23531;SDS011;11943;52.270;20.978;2023-07-13T06:43:12;16.50;;;11.43;;
23531;SDS011;11943;52.270;20.978;2023-07-13T06:45:43;16.23;;;8.98;;
23531;SDS011;11943;52.270;20.978;2023-07-13T06:48:14;11.93;;;7.33;;
23531;SDS011;11943;52.270;20.978;2023-07-13T06:50:41;17.10;;;7.25;;
23531;SDS011;11943;52.270;20.978;2023-07-13T06:53:10;11.13;;;6.53;;
23531;SDS011;11943;52.270;20.978;2023-07-13T06:55:37;8.82;;;6.57;;
23531;SDS011;11943;52.270;20.978;2023-07-13T06:58:03;11.38;;;7.07;;
23531;SDS011;11943;52.270;20.978;2023-07-13T07:00:29;9.57;;;6.03;;
23531;SDS011;11943;52.270;20.978;2023-07-13T07:02:54;8.55;;;5.35;;
23531;SDS011;11943;52.270;20.978;2023-07-13T07:05:20;12.05;;;4.78;;
23531;SDS011;11943;52.270;20.978;2023-07-13T07:07:50;7.33;;;4.70;;
23531;SDS011;11943;52.270;20.978;2023-07-13T07:10:17;15.70;;;4.00;;
23531;SDS011;11943;52.270;20.978;2023-07-13T07:12:43;14.07;;;5.45;;
23531;SDS011;11943;52.270;20.978;2023-07-13T07:15:09;8.60;;;4.97;;
23531;SDS011;11943;52.270;20.978;2023-07-13T07:17:35;6.47;;;5.00;;
23531;SDS011;11943;52.270;20.978;2023-07-13T07:20:01;8.82;;;5.00;;
23531;SDS011;11943;52.270;20.978;2023-07-13T07:22:28;13.02;;;6.75;;
23531;SDS011;11943;52.270;20.978;2023-07-13T07:24:55;10.27;;;5.78;;
23531;SDS011;11943;52.270;20.978;2023-07-13T07:27:21;7.00;;;4.67;;
23531;SDS011;11943;52.270;20.978;2023-07-13T07:29:47;6.38;;;4.43;;
23531;SDS011;11943;52.270;20.978;2023-07-13T07:32:13;7.88;;;5.20;;
23531;SDS011;11943;52.270;20.978;2023-07-13T07:34:39;8.95;;;4.93;;
23531;SDS011;11943;52.270;20.978;2023-07-13T07:37:04;7.13;;;5.28;;
23531;SDS011;11943;52.270;20.978;2023-07-13T07:39:31;8.30;;;4.90;;
23531;SDS011;11943;52.270;20.978;2023-07-13T07:41:56;17.85;;;5.38;;
23531;SDS011;11943;52.270;20.978;2023-07-13T07:44:22;6.38;;;4.10;;
23531;SDS011;11943;52.270;20.978;2023-07-13T07:46:48;6.32;;;3.83;;
23531;SDS011;11943;52.270;20.978;2023-07-13T07:49:14;7.63;;;3.30;;
23531;SDS011;11943;52.270;20.978;2023-07-13T07:51:40;7.90;;;4.07;;
23531;SDS011;11943;52.270;20.978;2023-07-13T07:54:06;12.40;;;4.10;;
23531;SDS011;11943;52.270;20.978;2023-07-13T07:56:31;5.57;;;3.75;;
23531;SDS011;11943;52.270;20.978;2023-07-13T07:58:57;12.90;;;4.45;;
23531;SDS011;11943;52.270;20.978;2023-07-13T08:01:23;13.55;;;3.95;;
23531;SDS011;11943;52.270;20.978;2023-07-13T08:03:49;18.42;;;5.40;;
23531;SDS011;11943;52.270;20.978;2023-07-13T08:06:15;14.20;;;4.70;;
23531;SDS011;11943;52.270;20.978;2023-07-13T08:08:41;5.47;;;4.38;;
23531;SDS011;11943;52.270;20.978;2023-07-13T08:11:07;10.35;;;4.63;;
23531;SDS011;11943;52.270;20.978;2023-07-13T08:13:34;5.55;;;3.97;;
23531;SDS011;11943;52.270;20.978;2023-07-13T08:16:00;13.93;;;4.93;;
23531;SDS011;11943;52.270;20.978;2023-07-13T08:18:26;12.75;;;5.22;;
23531;SDS011;11943;52.270;20.978;2023-07-13T08:20:53;13.02;;;5.22;;
23531;SDS011;11943;52.270;20.978;2023-07-13T08:23:21;7.45;;;4.43;;
23531;SDS011;11943;52.270;20.978;2023-07-13T08:25:53;12.07;;;4.05;;
23531;SDS011;11943;52.270;20.978;2023-07-13T08:28:20;12.63;;;4.50;;
23531;SDS011;11943;52.270;20.978;2023-07-13T08:30:47;9.95;;;4.35;;
23531;SDS011;11943;52.270;20.978;2023-07-13T08:35:47;15.75;;;5.82;;
23531;SDS011;11943;52.270;20.978;2023-07-13T08:38:13;18.95;;;5.88;;
23531;SDS011;11943;52.270;20.978;2023-07-13T08:40:40;49.72;;;10.40;;
23531;SDS011;11943;52.270;20.978;2023-07-13T08:43:06;65.30;;;8.73;;
23531;SDS011;11943;52.270;20.978;2023-07-13T08:45:43;15.32;;;4.60;;
23531;SDS011;11943;52.270;20.978;2023-07-13T08:50:53;10.40;;;3.97;;
23531;SDS011;11943;52.270;20.978;2023-07-13T08:53:21;8.07;;;4.57;;
23531;SDS011;11943;52.270;20.978;2023-07-13T08:55:50;11.80;;;4.43;;
23531;SDS011;11943;52.270;20.978;2023-07-13T08:58:24;6.25;;;4.20;;
23531;SDS011;11943;52.270;20.978;2023-07-13T09:00:57;4.88;;;3.60;;
23531;SDS011;11943;52.270;20.978;2023-07-13T09:03:24;6.68;;;4.22;;
23531;SDS011;11943;52.270;20.978;2023-07-13T09:05:58;5.25;;;4.57;;
23531;SDS011;11943;52.270;20.978;2023-07-13T09:11:18;11.15;;;4.63;;
23531;SDS011;11943;52.270;20.978;2023-07-13T09:14:39;8.10;;;4.30;;
23531;SDS011;11943;52.270;20.978;2023-07-13T09:17:10;13.20;;;5.43;;
23531;SDS011;11943;52.270;20.978;2023-07-13T09:19:42;11.93;;;4.65;;
23531;SDS011;11943;52.270;20.978;2023-07-13T09:22:14;8.85;;;5.13;;
23531;SDS011;11943;52.270;20.978;2023-07-13T09:25:05;8.50;;;4.38;;
23531;SDS011;11943;52.270;20.978;2023-07-13T09:30:23;19.95;;;5.22;;
23531;SDS011;11943;52.270;20.978;2023-07-13T09:32:55;10.82;;;3.97;;
23531;SDS011;11943;52.270;20.978;2023-07-13T09:35:24;9.55;;;4.45;;
23531;SDS011;11943;52.270;20.978;2023-07-13T09:37:56;9.05;;;4.10;;
23531;SDS011;11943;52.270;20.978;2023-07-13T09:40:25;11.13;;;3.88;;
23531;SDS011;11943;52.270;20.978;2023-07-13T09:43:06;5.05;;;3.85;;
23531;SDS011;11943;52.270;20.978;2023-07-13T09:45:37;4.90;;;3.60;;
23531;SDS011;11943;52.270;20.978;2023-07-13T09:48:10;5.80;;;3.70;;
23531;SDS011;11943;52.270;20.978;2023-07-13T09:50:38;4.63;;;3.72;;
23531;SDS011;11943;52.270;20.978;2023-07-13T09:53:09;7.50;;;3.60;;
23531;SDS011;11943;52.270;20.978;2023-07-13T09:55:38;8.88;;;3.47;;
23531;SDS011;11943;52.270;20.978;2023-07-13T10:00:43;8.60;;;3.45;;
23531;SDS011;11943;52.270;20.978;2023-07-13T10:03:19;3.53;;;3.20;;
23531;SDS011;11943;52.270;20.978;2023-07-13T10:05:48;5.10;;;3.42;;
23531;SDS011;11943;52.270;20.978;2023-07-13T10:10:53;10.05;;;3.97;;
23531;SDS011;11943;52.270;20.978;2023-07-13T10:13:44;11.50;;;4.10;;
23531;SDS011;11943;52.270;20.978;2023-07-13T10:16:22;4.32;;;3.58;;
23531;SDS011;11943;52.270;20.978;2023-07-13T10:18:51;7.10;;;3.45;;
23531;SDS011;11943;52.270;20.978;2023-07-13T10:21:23;6.75;;;3.85;;
23531;SDS011;11943;52.270;20.978;2023-07-13T10:24:06;10.10;;;3.58;;
23531;SDS011;11943;52.270;20.978;2023-07-13T10:29:11;11.10;;;4.05;;
23531;SDS011;11943;52.270;20.978;2023-07-13T10:31:40;12.27;;;3.88;;
23531;SDS011;11943;52.270;20.978;2023-07-13T10:34:09;9.50;;;4.18;;
23531;SDS011;11943;52.270;20.978;2023-07-13T10:36:41;10.93;;;3.80;;
23531;SDS011;11943;52.270;20.978;2023-07-13T10:41:46;8.98;;;3.60;;
23531;SDS011;11943;52.270;20.978;2023-07-13T10:44:24;4.93;;;3.42;;
23531;SDS011;11943;52.270;20.978;2023-07-13T10:47:12;10.75;;;4.07;;
23531;SDS011;11943;52.270;20.978;2023-07-13T10:49:41;9.80;;;3.83;;
23531;SDS011;11943;52.270;20.978;2023-07-13T10:52:35;7.35;;;4.20;;
23531;SDS011;11943;52.270;20.978;2023-07-13T10:55:03;10.13;;;4.57;;
23531;SDS011;11943;52.270;20.978;2023-07-13T10:57:29;7.30;;;4.80;;
23531;SDS011;11943;52.270;20.978;2023-07-13T11:02:55;10.98;;;5.05;;
23531;SDS011;11943;52.270;20.978;2023-07-13T11:07:53;9.53;;;5.90;;
23531;SDS011;11943;52.270;20.978;2023-07-13T11:14:14;12.10;;;7.18;;
23531;SDS011;11943;52.270;20.978;2023-07-13T11:18:46;11.63;;;7.57;;
23531;SDS011;11943;52.270;20.978;2023-07-13T11:21:25;19.95;;;8.32;;
23531;SDS011;11943;52.270;20.978;2023-07-13T11:23:53;17.60;;;8.70;;
23531;SDS011;11943;52.270;20.978;2023-07-13T11:29:12;16.73;;;8.32;;
23531;SDS011;11943;52.270;20.978;2023-07-13T11:31:58;14.65;;;8.48;;
23531;SDS011;11943;52.270;20.978;2023-07-13T11:34:36;16.60;;;9.38;;
23531;SDS011;11943;52.270;20.978;2023-07-13T11:37:03;14.13;;;8.70;;
23531;SDS011;11943;52.270;20.978;2023-07-13T11:39:37;20.73;;;9.93;;
23531;SDS011;11943;52.270;20.978;2023-07-13T11:42:09;20.13;;;10.25;;
23531;SDS011;11943;52.270;20.978;2023-07-13T11:44:43;19.17;;;10.38;;
23531;SDS011;11943;52.270;20.978;2023-07-13T11:47:22;20.02;;;10.63;;
23531;SDS011;11943;52.270;20.978;2023-07-13T11:52:21;19.75;;;8.98;;
23531;SDS011;11943;52.270;20.978;2023-07-13T11:54:50;19.98;;;10.32;;
23531;SDS011;11943;52.270;20.978;2023-07-13T11:57:24;18.65;;;10.45;;
23531;SDS011;11943;52.270;20.978;2023-07-13T11:59:51;20.10;;;10.23;;
23531;SDS011;11943;52.270;20.978;2023-07-13T12:02:37;16.52;;;9.55;;
23531;SDS011;11943;52.270;20.978;2023-07-13T12:05:06;14.93;;;8.55;;
23531;SDS011;11943;52.270;20.978;2023-07-13T12:07:37;11.15;;;7.13;;
23531;SDS011;11943;52.270;20.978;2023-07-13T12:12:57;14.20;;;6.40;;
23531;SDS011;11943;52.270;20.978;2023-07-13T12:15:29;8.52;;;5.82;;
23531;SDS011;11943;52.270;20.978;2023-07-13T12:18:15;9.38;;;5.53;;
23531;SDS011;11943;52.270;20.978;2023-07-13T12:20:44;10.90;;;5.85;;
23531;SDS011;11943;52.270;20.978;2023-07-13T12:23:21;9.50;;;5.63;;
23531;SDS011;11943;52.270;20.978;2023-07-13T12:25:50;9.57;;;5.75;;
23531;SDS011;11943;52.270;20.978;2023-07-13T12:28:21;8.80;;;5.82;;
23531;SDS011;11943;52.270;20.978;2023-07-13T12:31:04;6.80;;;5.38;;
23531;SDS011;11943;52.270;20.978;2023-07-13T12:33:32;8.50;;;5.35;;
23531;SDS011;11943;52.270;20.978;2023-07-13T12:36:02;8.85;;;5.50;;
23531;SDS011;11943;52.270;20.978;2023-07-13T12:38:30;7.45;;;6.07;;
23531;SDS011;11943;52.270;20.978;2023-07-13T12:40:57;12.87;;;5.87;;
23531;SDS011;11943;52.270;20.978;2023-07-13T12:43:23;7.57;;;5.70;;
23531;SDS011;11943;52.270;20.978;2023-07-13T12:46:04;10.65;;;6.18;;
23531;SDS011;11943;52.270;20.978;2023-07-13T12:48:40;11.00;;;6.25;;
23531;SDS011;11943;52.270;20.978;2023-07-13T12:51:09;11.57;;;6.40;;
23531;SDS011;11943;52.270;20.978;2023-07-13T12:53:47;13.73;;;6.47;;
23531;SDS011;11943;52.270;20.978;2023-07-13T12:56:19;12.70;;;6.88;;
23531;SDS011;11943;52.270;20.978;2023-07-13T12:58:48;12.80;;;6.47;;
23531;SDS011;11943;52.270;20.978;2023-07-13T13:01:19;10.50;;;6.40;;
23531;SDS011;11943;52.270;20.978;2023-07-13T13:03:48;10.93;;;7.70;;
23531;SDS011;11943;52.270;20.978;2023-07-13T13:08:43;8.60;;;6.10;;
23531;SDS011;11943;52.270;20.978;2023-07-13T13:11:14;7.38;;;6.03;;
23531;SDS011;11943;52.270;20.978;2023-07-13T13:13:41;8.95;;;6.38;;
23531;SDS011;11943;52.270;20.978;2023-07-13T13:16:21;13.30;;;6.45;;
23531;SDS011;11943;52.270;20.978;2023-07-13T13:18:50;12.38;;;6.70;;
23531;SDS011;11943;52.270;20.978;2023-07-13T13:21:17;10.32;;;6.35;;
23531;SDS011;11943;52.270;20.978;2023-07-13T13:23:44;9.57;;;6.18;;
23531;SDS011;11943;52.270;20.978;2023-07-13T13:26:11;10.48;;;7.15;;
23531;SDS011;11943;52.270;20.978;2023-07-13T13:28:39;11.38;;;6.90;;
23531;SDS011;11943;52.270;20.978;2023-07-13T13:31:07;16.02;;;6.80;;
23531;SDS011;11943;52.270;20.978;2023-07-13T13:33:37;12.50;;;7.57;;
23531;SDS011;11943;52.270;20.978;2023-07-13T13:36:18;11.90;;;6.85;;
23531;SDS011;11943;52.270;20.978;2023-07-13T13:38:47;10.45;;;7.03;;
23531;SDS011;11943;52.270;20.978;2023-07-13T13:41:14;13.73;;;7.63;;
23531;SDS011;11943;52.270;20.978;2023-07-13T13:43:41;12.53;;;7.80;;
23531;SDS011;11943;52.270;20.978;2023-07-13T13:46:28;13.88;;;7.60;;
23531;SDS011;11943;52.270;20.978;2023-07-13T13:48:55;10.23;;;7.25;;
23531;SDS011;11943;52.270;20.978;2023-07-13T13:51:22;11.33;;;7.60;;
23531;SDS011;11943;52.270;20.978;2023-07-13T13:53:49;16.73;;;8.60;;
23531;SDS011;11943;52.270;20.978;2023-07-13T13:56:15;11.00;;;8.15;;
23531;SDS011;11943;52.270;20.978;2023-07-13T13:58:42;14.85;;;7.75;;
23531;SDS011;11943;52.270;20.978;2023-07-13T14:01:13;12.98;;;8.23;;
23531;SDS011;11943;52.270;20.978;2023-07-13T14:03:45;14.55;;;7.35;;
23531;SDS011;11943;52.270;20.978;2023-07-13T14:06:13;12.75;;;8.05;;
23531;SDS011;11943;52.270;20.978;2023-07-13T14:08:40;16.98;;;8.25;;
23531;SDS011;11943;52.270;20.978;2023-07-13T14:11:07;11.25;;;7.95;;
23531;SDS011;11943;52.270;20.978;2023-07-13T14:13:41;15.57;;;8.63;;
23531;SDS011;11943;52.270;20.978;2023-07-13T14:16:12;13.40;;;8.70;;
23531;SDS011;11943;52.270;20.978;2023-07-13T14:18:44;13.57;;;8.60;;
23531;SDS011;11943;52.270;20.978;2023-07-13T14:21:13;12.55;;;8.85;;
23531;SDS011;11943;52.270;20.978;2023-07-13T14:35:10;19.02;;;11.07;;
23531;SDS011;11943;52.270;20.978;2023-07-13T14:37:37;17.55;;;10.30;;
23531;SDS011;11943;52.270;20.978;2023-07-13T14:40:11;22.02;;;10.38;;
23531;SDS011;11943;52.270;20.978;2023-07-13T14:42:41;15.77;;;10.48;;
23531;SDS011;11943;52.270;20.978;2023-07-13T14:45:17;17.00;;;10.88;;
23531;SDS011;11943;52.270;20.978;2023-07-13T14:47:44;18.80;;;10.57;;
23531;SDS011;11943;52.270;20.978;2023-07-13T14:50:14;14.17;;;10.67;;
23531;SDS011;11943;52.270;20.978;2023-07-13T14:52:42;17.98;;;11.00;;
23531;SDS011;11943;52.270;20.978;2023-07-13T14:55:12;14.40;;;10.95;;
23531;SDS011;11943;52.270;20.978;2023-07-13T14:57:39;16.13;;;11.27;;
23531;SDS011;11943;52.270;20.978;2023-07-13T15:00:26;17.48;;;11.77;;
23531;SDS011;11943;52.270;20.978;2023-07-13T15:02:54;22.33;;;12.25;;
23531;SDS011;11943;52.270;20.978;2023-07-13T15:05:29;18.00;;;12.05;;
23531;SDS011;11943;52.270;20.978;2023-07-13T15:07:57;19.58;;;11.32;;
23531;SDS011;11943;52.270;20.978;2023-07-13T15:10:27;21.65;;;11.95;;
23531;SDS011;11943;52.270;20.978;2023-07-13T15:13:15;13.68;;;10.57;;
23531;SDS011;11943;52.270;20.978;2023-07-13T15:15:44;15.45;;;11.90;;
23531;SDS011;11943;52.270;20.978;2023-07-13T15:18:17;19.58;;;13.75;;
23531;SDS011;11943;52.270;20.978;2023-07-13T15:20:45;17.20;;;13.05;;
23531;SDS011;11943;52.270;20.978;2023-07-13T15:23:13;17.70;;;12.75;;
23531;SDS011;11943;52.270;20.978;2023-07-13T15:25:40;18.15;;;13.23;;